createdAt,value
2023-07-19T00:00:50.074Z,11.23
2023-07-19T00:03:24.395Z,9.43
2023-07-19T00:05:57.309Z,12.18
2023-07-19T00:08:30.265Z,8.70
2023-07-19T00:11:03.172Z,13.15
2023-07-19T00:13:44.924Z,11.48
2023-07-19T00:16:17.858Z,8.15
2023-07-19T00:18:55.602Z,8.95
2023-07-19T00:21:32.615Z,9.57
2023-07-19T00:24:11.070Z,12.05
2023-07-19T00:26:44.063Z,11.13
2023-07-19T00:29:17.136Z,11.80
2023-07-19T00:31:50.169Z,10.50
2023-07-19T00:34:24.452Z,7.93
2023-07-19T00:36:57.494Z,10.98
2023-07-19T00:39:30.501Z,8.15
2023-07-19T00:42:03.496Z,10.82
2023-07-19T00:44:36.398Z,7.07
2023-07-19T00:47:09.789Z,8.00
2023-07-19T00:52:18.876Z,10.77
2023-07-19T00:57:24.637Z,10.75
2023-07-19T00:59:57.685Z,8.73
2023-07-19T01:02:31.017Z,9.15
2023-07-19T01:05:08.526Z,11.60
2023-07-19T01:07:41.951Z,12.30
2023-07-19T01:10:15.316Z,8.18
2023-07-19T01:13:04.016Z,9.25
2023-07-19T01:15:37.329Z,10.25
2023-07-19T01:18:10.392Z,7.75
2023-07-19T01:20:45.809Z,10.75
2023-07-19T01:23:20.127Z,8.13
2023-07-19T01:25:57.130Z,8.65
2023-07-19T01:28:30.156Z,6.70
2023-07-19T01:31:06.419Z,8.13
2023-07-19T01:33:39.465Z,7.65
2023-07-19T01:36:12.329Z,8.25
2023-07-19T01:38:46.766Z,7.00
2023-07-19T01:41:20.509Z,11.52
2023-07-19T01:43:54.158Z,7.35
2023-07-19T01:49:01.681Z,9.15
2023-07-19T01:51:34.612Z,8.27
2023-07-19T01:54:08.920Z,7.00
2023-07-19T01:56:42.192Z,8.73
2023-07-19T01:59:15.100Z,8.27
2023-07-19T02:01:48.963Z,7.07
2023-07-19T02:04:22.070Z,9.45
2023-07-19T02:06:55.083Z,8.82
2023-07-19T02:09:29.347Z,8.63
2023-07-19T02:12:02.758Z,7.55
2023-07-19T02:14:35.719Z,7.25
2023-07-19T02:17:08.889Z,10.80
2023-07-19T02:19:41.732Z,9.57
2023-07-19T02:22:16.902Z,11.50
2023-07-19T02:24:51.337Z,14.07
2023-07-19T02:27:24.371Z,8.77
2023-07-19T02:29:57.389Z,13.52
2023-07-19T02:32:32.136Z,8.68
2023-07-19T02:35:05.680Z,12.32
2023-07-19T02:40:12.976Z,11.30
2023-07-19T02:42:45.985Z,9.38
2023-07-19T02:45:18.971Z,7.40
2023-07-19T02:47:52.029Z,8.63
2023-07-19T02:50:24.886Z,11.98
2023-07-19T02:52:57.791Z,7.47
2023-07-19T02:55:32.195Z,6.22
2023-07-19T02:58:05.056Z,9.82
2023-07-19T03:00:41.532Z,11.00
2023-07-19T03:03:15.121Z,8.95
2023-07-19T03:08:20.842Z,27.02
2023-07-19T03:10:55.783Z,16.40
2023-07-19T03:13:28.726Z,18.30
2023-07-19T03:16:01.681Z,13.30
2023-07-19T03:18:34.588Z,13.82
2023-07-19T03:21:07.442Z,16.60
2023-07-19T03:23:40.361Z,12.20
2023-07-19T03:26:14.604Z,13.00
2023-07-19T03:28:47.633Z,11.25
2023-07-19T03:31:21.353Z,9.82
2023-07-19T03:33:54.347Z,7.93
2023-07-19T03:36:29.074Z,9.85
2023-07-19T03:39:01.900Z,15.63
2023-07-19T03:41:38.535Z,12.05
2023-07-19T03:44:12.182Z,9.57
2023-07-19T03:46:45.378Z,13.15
2023-07-19T03:49:18.481Z,11.77
2023-07-19T03:51:51.459Z,9.38
2023-07-19T03:54:25.958Z,11.15
2023-07-19T03:57:00.573Z,11.15
2023-07-19T03:59:34.022Z,11.80
2023-07-19T04:02:07.613Z,10.63
2023-07-19T04:04:40.596Z,9.80
2023-07-19T04:07:13.464Z,8.63
2023-07-19T04:09:46.362Z,10.80
2023-07-19T04:12:20.660Z,8.43
2023-07-19T04:14:53.811Z,13.38
2023-07-19T04:17:31.286Z,9.43
2023-07-19T04:20:04.807Z,10.05
2023-07-19T04:22:37.723Z,9.18
2023-07-19T04:25:11.979Z,8.15
2023-07-19T04:27:47.679Z,9.30
2023-07-19T04:30:20.845Z,16.48
2023-07-19T04:32:56.620Z,11.35
2023-07-19T04:35:29.687Z,12.23
2023-07-19T04:38:05.116Z,13.00
2023-07-19T04:40:38.220Z,15.88
2023-07-19T04:43:12.480Z,15.18
2023-07-19T04:45:45.986Z,14.20
2023-07-19T04:48:20.968Z,14.13
2023-07-19T04:50:54.556Z,10.80
2023-07-19T04:53:27.643Z,9.73
2023-07-19T04:56:02.982Z,13.50
2023-07-19T04:58:39.760Z,12.98
2023-07-19T05:01:13.597Z,9.10
2023-07-19T05:03:47.890Z,8.40
2023-07-19T05:06:21.106Z,6.00
2023-07-19T05:08:54.288Z,9.88
2023-07-19T05:11:27.405Z,10.32
2023-07-19T05:14:01.848Z,7.55
2023-07-19T05:16:35.651Z,9.63
2023-07-19T05:19:09.257Z,5.78
2023-07-19T05:21:42.370Z,4.93
2023-07-19T05:24:15.325Z,7.93
2023-07-19T05:26:48.628Z,7.97
2023-07-19T05:29:23.711Z,9.23
2023-07-19T05:31:56.787Z,9.50
2023-07-19T05:34:29.689Z,7.93
2023-07-19T05:37:04.819Z,7.40
2023-07-19T05:39:37.690Z,7.07
2023-07-19T05:42:10.756Z,10.35
2023-07-19T05:44:44.970Z,10.07
2023-07-19T05:47:18.358Z,16.25
2023-07-19T05:52:23.956Z,10.10
2023-07-19T05:54:57.183Z,7.50
2023-07-19T06:00:20.510Z,12.70
2023-07-19T06:02:55.934Z,6.15
2023-07-19T06:05:29.385Z,6.45
2023-07-19T06:08:18.333Z,9.38
2023-07-19T06:10:55.618Z,6.13
2023-07-19T06:13:28.700Z,3.55
2023-07-19T06:16:03.052Z,5.47
2023-07-19T06:18:36.057Z,9.75
2023-07-19T06:21:09.065Z,4.88
2023-07-19T06:23:42.630Z,5.22
2023-07-19T06:26:15.656Z,5.95
2023-07-19T06:28:48.594Z,2.45
2023-07-19T06:31:23.014Z,16.70
2023-07-19T06:33:56.695Z,3.80
2023-07-19T06:36:29.584Z,5.15
2023-07-19T06:39:02.480Z,3.35
2023-07-19T06:41:35.409Z,2.75
2023-07-19T06:44:08.341Z,5.93
2023-07-19T06:46:42.649Z,5.95
2023-07-19T06:49:15.801Z,3.17
2023-07-19T06:54:22.572Z,4.97
2023-07-19T06:56:55.478Z,5.75
2023-07-19T06:59:29.540Z,4.97
2023-07-19T07:02:03.857Z,5.50
2023-07-19T07:04:36.926Z,3.88
2023-07-19T07:09:44.450Z,4.57
2023-07-19T07:12:20.558Z,5.03
2023-07-19T07:17:30.069Z,7.57
2023-07-19T07:20:03.140Z,3.33
2023-07-19T07:25:09.267Z,4.45
2023-07-19T07:27:42.212Z,4.18
2023-07-19T07:30:15.204Z,3.75
2023-07-19T07:33:08.929Z,3.13
2023-07-19T07:35:45.986Z,3.10
2023-07-19T07:38:19.150Z,4.10
2023-07-19T07:40:52.067Z,11.07
2023-07-19T07:45:58.004Z,3.10
2023-07-19T07:48:34.505Z,6.05
2023-07-19T07:51:07.601Z,2.00
2023-07-19T07:56:17.571Z,3.50
2023-07-19T07:58:50.772Z,4.35
2023-07-19T08:01:24.117Z,2.08
2023-07-19T08:03:58.968Z,3.22
2023-07-19T08:06:32.053Z,2.67
2023-07-19T08:09:05.030Z,2.20
2023-07-19T08:11:37.980Z,2.65
2023-07-19T08:16:43.779Z,3.55
2023-07-19T08:19:18.421Z,2.10
2023-07-19T08:21:51.496Z,4.00
2023-07-19T08:24:24.583Z,1.58
2023-07-19T08:27:00.493Z,2.28
2023-07-19T08:29:33.446Z,2.40
2023-07-19T08:34:44.098Z,2.38
2023-07-19T08:37:17.015Z,3.50
2023-07-19T08:42:22.931Z,2.63
2023-07-19T08:44:56.386Z,2.22
2023-07-19T08:47:30.324Z,2.38
2023-07-19T08:50:06.859Z,3.85
2023-07-19T08:52:51.137Z,2.70
2023-07-19T08:55:24.097Z,3.38
2023-07-19T08:57:57.370Z,3.75
2023-07-19T09:00:33.260Z,3.58
2023-07-19T09:03:06.433Z,2.63
2023-07-19T09:05:40.874Z,3.13
2023-07-19T09:08:14.234Z,3.55
2023-07-19T09:10:48.014Z,2.78
2023-07-19T09:13:21.203Z,3.10
2023-07-19T09:15:56.505Z,2.10
2023-07-19T09:18:31.282Z,1.92
2023-07-19T09:21:06.235Z,4.10
2023-07-19T09:23:39.838Z,4.00
2023-07-19T09:26:12.768Z,2.35
2023-07-19T09:28:45.873Z,1.95
2023-07-19T09:31:25.646Z,8.65
2023-07-19T09:33:59.136Z,4.55
2023-07-19T09:36:33.508Z,2.05
2023-07-19T09:39:07.643Z,1.70
2023-07-19T09:41:40.980Z,2.28
2023-07-19T09:44:16.652Z,1.63
2023-07-19T09:46:50.678Z,2.35
2023-07-19T09:49:24.551Z,4.85
2023-07-19T09:51:59.260Z,1.98
2023-07-19T09:54:34.089Z,3.88
2023-07-19T09:57:08.032Z,2.45
2023-07-19T09:59:45.856Z,3.63
2023-07-19T10:02:19.488Z,6.13
2023-07-19T10:04:53.014Z,3.22
2023-07-19T10:07:37.680Z,2.03
2023-07-19T10:10:18.793Z,4.10
2023-07-19T10:12:52.893Z,3.20
2023-07-19T10:15:25.913Z,4.38
2023-07-19T10:18:00.845Z,2.40
2023-07-19T10:20:36.030Z,7.32
2023-07-19T10:23:10.518Z,2.40
2023-07-19T10:25:48.149Z,2.58
2023-07-19T10:28:30.966Z,1.85
2023-07-19T10:31:27.308Z,2.55
2023-07-19T10:33:58.604Z,3.50
2023-07-19T10:36:31.819Z,4.22
2023-07-19T10:39:06.201Z,2.88
2023-07-19T10:41:39.122Z,3.28
2023-07-19T10:44:12.354Z,13.85
2023-07-19T10:46:48.418Z,3.38
2023-07-19T10:49:23.081Z,5.13
2023-07-19T10:51:57.600Z,3.03
2023-07-19T10:54:41.850Z,1.67
2023-07-19T11:02:30.124Z,1.98
2023-07-19T11:05:03.164Z,3.33
2023-07-19T11:07:36.493Z,2.28
2023-07-19T11:10:11.377Z,4.72
2023-07-19T11:12:44.977Z,1.88
2023-07-19T11:15:18.159Z,1.98
2023-07-19T11:17:53.854Z,3.25
2023-07-19T11:20:31.568Z,3.38
2023-07-19T11:23:07.410Z,3.42
2023-07-19T11:25:42.124Z,3.75
2023-07-19T11:28:35.552Z,2.05
2023-07-19T11:31:11.654Z,2.50
2023-07-19T11:33:50.232Z,2.70
2023-07-19T11:36:23.109Z,3.50
2023-07-19T11:38:56.450Z,1.85
2023-07-19T11:41:33.645Z,2.35
2023-07-19T11:44:06.683Z,5.80
2023-07-19T11:46:39.806Z,3.03
2023-07-19T11:49:12.896Z,3.00
2023-07-19T11:51:47.416Z,3.17
2023-07-19T11:54:20.393Z,2.17
2023-07-19T11:56:54.636Z,1.83
2023-07-19T11:59:27.588Z,2.22
2023-07-19T12:02:01.147Z,2.53
2023-07-19T12:04:34.440Z,4.07
2023-07-19T12:07:07.369Z,6.72
2023-07-19T12:09:40.395Z,2.38
2023-07-19T12:12:15.194Z,6.25
2023-07-19T12:14:48.038Z,3.55
2023-07-19T12:19:53.683Z,10.65
2023-07-19T12:22:26.635Z,2.40
2023-07-19T12:25:05.207Z,2.30
2023-07-19T12:27:47.902Z,2.58
2023-07-19T12:30:23.240Z,2.30
2023-07-19T12:32:58.449Z,3.28
2023-07-19T12:35:34.612Z,4.28
2023-07-19T12:38:10.517Z,2.30
2023-07-19T12:40:46.739Z,2.50
2023-07-19T12:43:21.443Z,4.30
2023-07-19T12:45:58.558Z,5.25
2023-07-19T12:48:36.748Z,3.53
2023-07-19T12:51:10.257Z,2.45
2023-07-19T12:53:43.628Z,3.15
2023-07-19T12:56:16.564Z,3.85
2023-07-19T12:58:52.382Z,2.03
2023-07-19T13:01:25.555Z,3.05
2023-07-19T13:04:00.647Z,3.30
2023-07-19T13:06:35.221Z,4.95
2023-07-19T13:09:10.874Z,4.13
2023-07-19T13:11:43.845Z,2.45
2023-07-19T13:14:18.124Z,2.55
2023-07-19T13:17:01.839Z,3.38
2023-07-19T13:19:43.737Z,2.20
2023-07-19T13:22:17.506Z,5.10
2023-07-19T13:24:50.475Z,6.13
2023-07-19T13:27:23.416Z,3.33
2023-07-19T13:29:58.311Z,2.92
2023-07-19T13:32:33.708Z,2.50
2023-07-19T13:35:13.394Z,2.00
2023-07-19T13:40:22.485Z,1.73
2023-07-19T13:42:57.211Z,3.55
2023-07-19T13:45:32.096Z,10.27
2023-07-19T13:48:05.366Z,3.20
2023-07-19T13:50:38.631Z,5.40
2023-07-19T13:53:11.613Z,5.55
2023-07-19T13:58:18.257Z,2.30
2023-07-19T14:03:30.318Z,2.67
2023-07-19T14:06:03.366Z,3.20
2023-07-19T14:08:36.245Z,10.77
2023-07-19T14:13:55.158Z,3.95
2023-07-19T14:16:34.952Z,2.85
2023-07-19T14:19:08.924Z,5.25
2023-07-19T14:21:42.687Z,3.88
2023-07-19T14:24:15.616Z,2.83
2023-07-19T14:26:48.597Z,3.60
2023-07-19T14:29:21.805Z,4.78
2023-07-19T14:31:56.143Z,3.50
2023-07-19T14:34:30.288Z,5.50
2023-07-19T14:37:03.253Z,5.15
2023-07-19T14:39:36.143Z,4.28
2023-07-19T14:44:47.951Z,7.47
2023-07-19T14:47:24.983Z,2.55
2023-07-19T14:49:59.866Z,4.40
2023-07-19T14:52:33.262Z,2.92
2023-07-19T14:55:17.876Z,3.20
2023-07-19T14:57:54.262Z,2.95
2023-07-19T15:06:00.065Z,2.53
2023-07-19T15:08:34.740Z,4.45
2023-07-19T15:11:11.546Z,3.50
2023-07-19T15:13:46.088Z,3.60
2023-07-19T15:16:19.063Z,5.88
2023-07-19T15:18:53.561Z,9.95
2023-07-19T15:21:26.629Z,6.47
2023-07-19T15:23:59.634Z,11.85
2023-07-19T15:26:35.720Z,2.80
2023-07-19T15:29:12.193Z,2.38
2023-07-19T15:31:45.370Z,3.10
2023-07-19T15:34:21.258Z,3.92
2023-07-19T15:36:58.950Z,3.35
2023-07-19T15:39:35.981Z,3.40
2023-07-19T15:42:11.663Z,4.22
2023-07-19T15:44:47.796Z,5.63
2023-07-19T15:47:25.971Z,3.97
2023-07-19T15:50:22.895Z,1.67
2023-07-19T15:52:59.037Z,2.53
2023-07-19T15:55:32.138Z,1.95
2023-07-19T16:00:37.848Z,3.00
2023-07-19T16:03:10.933Z,3.60
2023-07-19T16:05:45.302Z,9.32
2023-07-19T16:08:18.284Z,14.85
2023-07-19T16:10:51.307Z,2.45
2023-07-19T16:13:24.451Z,2.35
2023-07-19T16:15:58.418Z,3.92
2023-07-19T16:18:31.529Z,2.28
2023-07-19T16:21:07.841Z,3.05
2023-07-19T16:23:42.552Z,3.92
2023-07-19T16:26:15.701Z,5.18
2023-07-19T16:28:51.321Z,2.58
2023-07-19T16:31:33.884Z,3.08
2023-07-19T16:34:09.743Z,3.75
2023-07-19T16:36:44.016Z,7.30
2023-07-19T16:39:18.110Z,3.08
2023-07-19T16:41:53.530Z,4.40
2023-07-19T16:44:31.032Z,3.03
2023-07-19T16:47:06.128Z,3.13
2023-07-19T16:49:39.143Z,10.85
2023-07-19T16:52:19.066Z,6.45
2023-07-19T16:54:57.570Z,7.65
2023-07-19T16:57:31.547Z,7.32
2023-07-19T17:00:16.413Z,5.75
2023-07-19T17:03:01.222Z,7.97
2023-07-19T17:05:34.459Z,4.22
2023-07-19T17:08:11.182Z,7.53
2023-07-19T17:10:45.202Z,7.05
2023-07-19T17:13:24.156Z,7.25
2023-07-19T17:16:02.065Z,6.70
2023-07-19T17:21:59.425Z,8.35
2023-07-19T17:24:43.694Z,5.95
2023-07-19T17:27:16.721Z,4.32
2023-07-19T17:32:22.397Z,10.50
2023-07-19T17:34:55.443Z,7.85
2023-07-19T17:40:02.490Z,11.18
2023-07-19T17:42:35.650Z,5.47
2023-07-19T17:45:10.162Z,5.85
2023-07-19T17:47:43.444Z,8.32
2023-07-19T17:50:16.364Z,12.75
2023-07-19T17:52:49.243Z,13.30
2023-07-19T17:55:23.650Z,4.53
2023-07-19T17:57:57.824Z,8.20
2023-07-19T18:00:33.373Z,12.65
2023-07-19T18:03:06.565Z,7.35
2023-07-19T18:08:22.335Z,12.65
2023-07-19T18:11:06.626Z,7.40
2023-07-19T18:13:57.149Z,6.75
2023-07-19T18:16:34.162Z,12.35
2023-07-19T18:19:10.383Z,6.50
2023-07-19T18:21:53.939Z,7.18
2023-07-19T18:24:35.663Z,5.63
2023-07-19T18:27:11.971Z,8.93
2023-07-19T18:29:46.297Z,9.98
2023-07-19T18:32:20.540Z,4.80
2023-07-19T18:34:55.797Z,6.30
2023-07-19T18:37:30.781Z,6.13
2023-07-19T18:40:10.434Z,6.70
2023-07-19T18:42:46.223Z,6.10
2023-07-19T18:45:19.333Z,6.40
2023-07-19T18:50:25.221Z,6.05
2023-07-19T18:55:30.885Z,6.53
2023-07-19T18:58:05.254Z,8.07
2023-07-19T19:00:38.303Z,9.45
2023-07-19T19:03:11.555Z,4.80
2023-07-19T19:05:56.269Z,4.13
2023-07-19T19:08:33.167Z,6.07
2023-07-19T19:11:08.568Z,5.28
2023-07-19T19:13:48.775Z,7.05
2023-07-19T19:16:25.544Z,6.57
2023-07-19T19:19:00.921Z,5.38
2023-07-19T19:21:36.724Z,4.28
2023-07-19T19:24:12.467Z,4.38
2023-07-19T19:26:49.772Z,3.33
2023-07-19T19:29:24.287Z,8.13
2023-07-19T19:31:57.203Z,4.82
2023-07-19T19:34:30.177Z,11.48
2023-07-19T19:37:05.819Z,7.22
2023-07-19T19:39:40.581Z,7.75
2023-07-19T19:42:16.575Z,12.00
2023-07-19T19:44:55.377Z,5.55
2023-07-19T19:47:28.357Z,7.18
2023-07-19T19:50:04.578Z,4.13
2023-07-19T19:52:37.631Z,7.82
2023-07-19T19:55:10.729Z,5.63
2023-07-19T19:57:43.755Z,7.50
2023-07-19T20:00:24.206Z,8.55
2023-07-19T20:08:20.616Z,10.18
2023-07-19T20:11:10.852Z,4.05
2023-07-19T20:13:43.944Z,3.85
2023-07-19T20:16:18.412Z,4.80
2023-07-19T20:18:54.186Z,6.65
2023-07-19T20:21:33.634Z,4.55
2023-07-19T20:24:10.601Z,6.88
2023-07-19T20:26:57.562Z,6.38
2023-07-19T20:30:01.732Z,4.97
2023-07-19T20:35:03.039Z,6.88
2023-07-19T20:37:38.025Z,5.65
2023-07-19T20:42:49.892Z,6.53
2023-07-19T20:45:26.374Z,5.78
2023-07-19T20:48:03.603Z,5.30
2023-07-19T20:50:36.931Z,9.57
2023-07-19T20:55:42.549Z,3.60
2023-07-19T20:58:15.547Z,5.88
2023-07-19T21:00:48.601Z,14.52
2023-07-19T21:03:23.135Z,7.57
2023-07-19T21:05:56.145Z,6.15
2023-07-19T21:08:30.127Z,5.90
2023-07-19T21:11:03.102Z,5.60
2023-07-19T21:13:36.118Z,5.25
2023-07-19T21:16:58.092Z,4.43
2023-07-19T21:19:34.889Z,4.60
2023-07-19T21:22:07.862Z,7.03
2023-07-19T21:25:06.676Z,5.90
2023-07-19T21:27:35.932Z,8.85
2023-07-19T21:30:10.061Z,9.55
2023-07-19T21:32:43.489Z,7.03
2023-07-19T21:35:17.849Z,4.57
2023-07-19T21:37:50.848Z,8.38
2023-07-19T21:40:23.901Z,6.55
2023-07-19T21:43:04.158Z,4.25
2023-07-19T21:45:39.987Z,6.82
2023-07-19T21:48:13.118Z,6.68
2023-07-19T21:50:50.558Z,3.42
2023-07-19T21:53:27.382Z,7.28
2023-07-19T21:56:00.262Z,6.28
2023-07-19T21:58:33.132Z,5.13
2023-07-19T22:01:12.120Z,9.77
2023-07-19T22:03:45.100Z,6.35
2023-07-19T22:06:19.529Z,7.53
2023-07-19T22:08:52.573Z,4.00
2023-07-19T22:11:25.569Z,5.47
2023-07-19T22:13:59.633Z,6.43
2023-07-19T22:16:32.561Z,5.43
2023-07-19T22:19:06.245Z,6.45
2023-07-19T22:21:40.595Z,6.85
2023-07-19T22:24:13.470Z,6.95
2023-07-19T22:26:46.451Z,5.32
2023-07-19T22:29:19.643Z,5.13
2023-07-19T22:31:52.635Z,3.97
2023-07-19T22:34:25.606Z,6.30
2023-07-19T22:36:59.902Z,4.05
2023-07-19T22:39:32.819Z,6.38
2023-07-19T22:42:06.113Z,4.78
2023-07-19T22:44:38.984Z,7.07
2023-07-19T22:47:12.056Z,4.13
2023-07-19T22:49:46.346Z,5.50
2023-07-19T22:52:21.647Z,7.68
2023-07-19T22:54:54.693Z,5.30
2023-07-19T22:57:27.613Z,4.28
2023-07-19T23:00:00.639Z,5.50
2023-07-19T23:02:33.650Z,5.25
2023-07-19T23:05:08.910Z,5.95
2023-07-19T23:07:43.465Z,8.20
2023-07-19T23:10:17.299Z,7.25
2023-07-19T23:12:51.844Z,5.57
2023-07-19T23:15:25.131Z,4.95
2023-07-19T23:17:59.580Z,6.72
2023-07-19T23:20:32.487Z,5.47
2023-07-19T23:23:06.882Z,7.45
2023-07-19T23:25:39.866Z,4.78
2023-07-19T23:28:12.814Z,5.85
2023-07-19T23:30:45.985Z,4.85
2023-07-19T23:33:19.191Z,3.88
2023-07-19T23:35:52.120Z,6.32
2023-07-19T23:38:26.654Z,5.93
2023-07-19T23:40:59.725Z,12.82
2023-07-19T23:43:32.649Z,5.05
2023-07-19T23:46:06.027Z,5.70
2023-07-19T23:51:12.061Z,6.13
2023-07-19T23:53:46.358Z,6.07
2023-07-19T23:56:19.282Z,5.50
2023-07-19T23:58:52.554Z,4.57
